Airport ID:7S0
Update Time (UTC):24/02/2021 17:38
Wind Speed (Knots):2
Wind Direction (Magnetic):70
Temperature (°C):-2.9
Dew Point (°C):-5.8
Humidity (%):79.1
Altimeter (inHg):30.37
Density Altitude (Feet):
Visibility (Miles):10
Clouds (Hundreds of feet):***
Present Weather:
METAR:METAR 7S0 241735Z AUTO 00000KT 10SM M03/M06 A3037 RMK A01

The data displayed is for advisory purposes only and is not to be used for flight planning or operations.